sensor_id;sensor_type;location;lat;lon;timestamp;pressure;altitude;pressure_sealevel;temperature;humidity
56582;BME280;42463;52.214;21.238;2022-12-20T00:01:11;101159.70;;;-1.35;69.91
56582;BME280;42463;52.214;21.238;2022-12-20T00:03:37;101156.68;;;-1.31;69.62
56582;BME280;42463;52.214;21.238;2022-12-20T00:06:02;101156.95;;;-1.32;70.12
56582;BME280;42463;52.214;21.238;2022-12-20T00:08:27;101153.64;;;-1.30;69.98
56582;BME280;42463;52.214;21.238;2022-12-20T00:10:52;101154.34;;;-1.27;70.30
56582;BME280;42463;52.214;21.238;2022-12-20T00:13:18;101146.83;;;-1.25;70.51
56582;BME280;42463;52.214;21.238;2022-12-20T00:15:43;101151.48;;;-1.19;70.59
56582;BME280;42463;52.214;21.238;2022-12-20T00:18:08;101150.17;;;-1.16;70.89
56582;BME280;42463;52.214;21.238;2022-12-20T00:20:33;101140.86;;;-1.22;71.89
56582;BME280;42463;52.214;21.238;2022-12-20T00:23:02;101136.17;;;-1.21;71.45
56582;BME280;42463;52.214;21.238;2022-12-20T00:25:32;101130.29;;;-1.20;71.47
56582;BME280;42463;52.214;21.238;2022-12-20T00:27:56;101122.59;;;-1.14;71.16
56582;BME280;42463;52.214;21.238;2022-12-20T00:30:21;101118.50;;;-1.12;71.38
56582;BME280;42463;52.214;21.238;2022-12-20T00:32:46;101113.78;;;-1.10;71.60
56582;BME280;42463;52.214;21.238;2022-12-20T00:35:11;101111.17;;;-1.12;71.85
56582;BME280;42463;52.214;21.238;2022-12-20T00:37:36;101108.81;;;-1.13;71.96
56582;BME280;42463;52.214;21.238;2022-12-20T00:40:01;101107.88;;;-1.14;72.20
56582;BME280;42463;52.214;21.238;2022-12-20T00:42:27;101107.45;;;-1.13;72.46
56582;BME280;42463;52.214;21.238;2022-12-20T00:44:54;101103.30;;;-1.08;72.47
56582;BME280;42463;52.214;21.238;2022-12-20T00:47:19;101100.73;;;-1.05;72.62
56582;BME280;42463;52.214;21.238;2022-12-20T00:49:45;101100.95;;;-1.06;72.84
56582;BME280;42463;52.214;21.238;2022-12-20T00:52:11;101098.35;;;-1.06;73.00
56582;BME280;42463;52.214;21.238;2022-12-20T00:54:36;101100.02;;;-1.04;73.01
56582;BME280;42463;52.214;21.238;2022-12-20T00:57:01;101102.90;;;-1.09;73.56
56582;BME280;42463;52.214;21.238;2022-12-20T00:59:25;101095.96;;;-1.02;73.08
56582;BME280;42463;52.214;21.238;2022-12-20T01:01:50;101094.98;;;-0.98;73.35
56582;BME280;42463;52.214;21.238;2022-12-20T01:04:17;101095.05;;;-0.99;73.09
56582;BME280;42463;52.214;21.238;2022-12-20T01:06:42;101094.19;;;-0.94;73.24
56582;BME280;42463;52.214;21.238;2022-12-20T01:09:08;101087.37;;;-0.91;73.15
56582;BME280;42463;52.214;21.238;2022-12-20T01:11:35;101082.84;;;-0.89;73.01
56582;BME280;42463;52.214;21.238;2022-12-20T01:14:03;101081.78;;;-0.86;73.07
56582;BME280;42463;52.214;21.238;2022-12-20T01:16:30;101064.52;;;-0.97;73.45
56582;BME280;42463;52.214;21.238;2022-12-20T01:18:56;101077.75;;;-0.84;73.48
56582;BME280;42463;52.214;21.238;2022-12-20T01:21:24;101071.05;;;-0.81;73.18
56582;BME280;42463;52.214;21.238;2022-12-20T01:23:49;101067.38;;;-0.79;73.30
56582;BME280;42463;52.214;21.238;2022-12-20T01:26:16;101070.11;;;-0.76;73.63
56582;BME280;42463;52.214;21.238;2022-12-20T01:28:45;101071.12;;;-0.72;73.45
56582;BME280;42463;52.214;21.238;2022-12-20T01:31:16;101067.29;;;-0.70;73.56
56582;BME280;42463;52.214;21.238;2022-12-20T01:33:43;101045.26;;;-0.80;73.97
56582;BME280;42463;52.214;21.238;2022-12-20T01:36:13;101060.59;;;-0.72;74.21
56582;BME280;42463;52.214;21.238;2022-12-20T01:38:39;101055.16;;;-0.70;73.90
56582;BME280;42463;52.214;21.238;2022-12-20T01:41:07;101052.73;;;-0.65;74.09
56582;BME280;42463;52.214;21.238;2022-12-20T01:43:47;101050.17;;;-0.62;74.30
56582;BME280;42463;52.214;21.238;2022-12-20T01:46:12;101040.45;;;-0.61;74.58
56582;BME280;42463;52.214;21.238;2022-12-20T01:48:40;101024.85;;;-0.73;74.72
56582;BME280;42463;52.214;21.238;2022-12-20T01:51:09;101041.45;;;-0.61;74.71
56582;BME280;42463;52.214;21.238;2022-12-20T01:53:34;101027.73;;;-0.60;74.80
56582;BME280;42463;52.214;21.238;2022-12-20T01:56:02;101024.13;;;-0.53;74.93
56582;BME280;42463;52.214;21.238;2022-12-20T01:58:30;101018.36;;;-0.48;75.06
56582;BME280;42463;52.214;21.238;2022-12-20T02:04:08;101011.27;;;-0.48;75.85
56582;BME280;42463;52.214;21.238;2022-12-20T02:06:33;101005.83;;;-0.45;75.93
56582;BME280;42463;52.214;21.238;2022-12-20T02:08:59;101008.27;;;-0.43;76.14
56582;BME280;42463;52.214;21.238;2022-12-20T02:11:40;100999.36;;;-0.42;76.13
56582;BME280;42463;52.214;21.238;2022-12-20T02:14:17;100995.70;;;-0.41;76.72
56582;BME280;42463;52.214;21.238;2022-12-20T02:16:47;100988.90;;;-0.44;77.79
56582;BME280;42463;52.214;21.238;2022-12-20T02:19:42;100980.04;;;-0.41;77.21
56582;BME280;42463;52.214;21.238;2022-12-20T02:22:23;100968.73;;;-0.38;77.80
56582;BME280;42463;52.214;21.238;2022-12-20T02:25:04;100970.54;;;-0.40;78.13
56582;BME280;42463;52.214;21.238;2022-12-20T02:27:46;100972.40;;;-0.34;77.96
56582;BME280;42463;52.214;21.238;2022-12-20T02:30:16;100967.05;;;-0.29;78.08
56582;BME280;42463;52.214;21.238;2022-12-20T02:32:46;100945.19;;;-0.40;77.93
56582;BME280;42463;52.214;21.238;2022-12-20T02:35:18;100955.95;;;-0.25;77.67
56582;BME280;42463;52.214;21.238;2022-12-20T02:37:51;100966.98;;;-0.14;77.77
56582;BME280;42463;52.214;21.238;2022-12-20T02:40:18;100969.82;;;-0.16;78.79
56582;BME280;42463;52.214;21.238;2022-12-20T02:42:45;100958.30;;;-0.11;78.68
56582;BME280;42463;52.214;21.238;2022-12-20T02:45:12;100959.66;;;-0.08;78.89
56582;BME280;42463;52.214;21.238;2022-12-20T02:47:47;100956.81;;;0.00;78.72
56582;BME280;42463;52.214;21.238;2022-12-20T02:50:12;100952.77;;;0.06;79.05
56582;BME280;42463;52.214;21.238;2022-12-20T02:52:39;100957.52;;;0.10;79.15
56582;BME280;42463;52.214;21.238;2022-12-20T02:55:05;100955.96;;;0.17;78.75
56582;BME280;42463;52.214;21.238;2022-12-20T02:57:36;100951.27;;;0.21;79.33
56582;BME280;42463;52.214;21.238;2022-12-20T03:00:05;100951.91;;;0.26;78.98
56582;BME280;42463;52.214;21.238;2022-12-20T03:02:31;100951.00;;;0.28;79.04
56582;BME280;42463;52.214;21.238;2022-12-20T03:05:18;100950.78;;;0.33;79.38
56582;BME280;42463;52.214;21.238;2022-12-20T03:07:46;100956.90;;;0.36;79.17
56582;BME280;42463;52.214;21.238;2022-12-20T03:10:12;100949.74;;;0.39;79.74
56582;BME280;42463;52.214;21.238;2022-12-20T03:12:37;100944.58;;;0.44;79.47
56582;BME280;42463;52.214;21.238;2022-12-20T03:15:06;100940.12;;;0.48;79.62
56582;BME280;42463;52.214;21.238;2022-12-20T03:17:33;100936.98;;;0.54;79.33
56582;BME280;42463;52.214;21.238;2022-12-20T03:19:59;100929.73;;;0.60;79.31
56582;BME280;42463;52.214;21.238;2022-12-20T03:22:24;100932.63;;;0.61;79.72
56582;BME280;42463;52.214;21.238;2022-12-20T03:24:49;100928.31;;;0.63;79.49
56582;BME280;42463;52.214;21.238;2022-12-20T03:27:19;100927.06;;;0.61;79.86
56582;BME280;42463;52.214;21.238;2022-12-20T03:29:44;100927.87;;;0.63;79.88
56582;BME280;42463;52.214;21.238;2022-12-20T03:32:13;100929.77;;;0.64;80.15
56582;BME280;42463;52.214;21.238;2022-12-20T03:34:39;100927.52;;;0.68;79.84
56582;BME280;42463;52.214;21.238;2022-12-20T03:37:04;100931.45;;;0.68;80.37
56582;BME280;42463;52.214;21.238;2022-12-20T03:39:29;100936.70;;;0.72;79.98
56582;BME280;42463;52.214;21.238;2022-12-20T03:41:53;100941.48;;;0.71;80.12
56582;BME280;42463;52.214;21.238;2022-12-20T03:44:18;100939.19;;;0.69;80.64
56582;BME280;42463;52.214;21.238;2022-12-20T03:46:50;100922.34;;;0.73;80.35
56582;BME280;42463;52.214;21.238;2022-12-20T03:49:15;100925.09;;;0.77;80.63
56582;BME280;42463;52.214;21.238;2022-12-20T03:51:45;100924.53;;;0.83;80.09
56582;BME280;42463;52.214;21.238;2022-12-20T03:54:13;100909.84;;;0.87;79.96
56582;BME280;42463;52.214;21.238;2022-12-20T03:56:56;100906.22;;;0.93;79.93
56582;BME280;42463;52.214;21.238;2022-12-20T03:59:23;100916.98;;;0.96;79.79
56582;BME280;42463;52.214;21.238;2022-12-20T04:01:49;100924.52;;;0.97;79.59
56582;BME280;42463;52.214;21.238;2022-12-20T04:04:14;100914.51;;;1.02;79.64
56582;BME280;42463;52.214;21.238;2022-12-20T04:06:39;100920.71;;;1.05;79.41
56582;BME280;42463;52.214;21.238;2022-12-20T04:09:04;100918.72;;;1.09;79.42
56582;BME280;42463;52.214;21.238;2022-12-20T04:11:35;100915.63;;;1.09;79.40
56582;BME280;42463;52.214;21.238;2022-12-20T04:14:04;100935.23;;;1.08;79.58
56582;BME280;42463;52.214;21.238;2022-12-20T04:16:30;100933.11;;;1.07;79.62
56582;BME280;42463;52.214;21.238;2022-12-20T04:18:55;100929.71;;;1.06;79.50
56582;BME280;42463;52.214;21.238;2022-12-20T04:21:26;100933.58;;;1.08;79.01
56582;BME280;42463;52.214;21.238;2022-12-20T04:23:52;100925.38;;;1.09;79.19
56582;BME280;42463;52.214;21.238;2022-12-20T04:26:17;100926.00;;;1.12;79.45
56582;BME280;42463;52.214;21.238;2022-12-20T04:28:43;100924.24;;;1.10;79.69
56582;BME280;42463;52.214;21.238;2022-12-20T04:31:07;100915.83;;;1.13;79.22
56582;BME280;42463;52.214;21.238;2022-12-20T04:33:32;100907.17;;;1.17;79.28
56582;BME280;42463;52.214;21.238;2022-12-20T04:35:57;100894.96;;;1.17;79.26
56582;BME280;42463;52.214;21.238;2022-12-20T04:38:22;100888.06;;;1.22;79.33
56582;BME280;42463;52.214;21.238;2022-12-20T04:40:50;100879.56;;;1.23;79.29
56582;BME280;42463;52.214;21.238;2022-12-20T04:43:15;100884.56;;;1.25;78.92
56582;BME280;42463;52.214;21.238;2022-12-20T04:45:41;100890.50;;;1.28;78.89
56582;BME280;42463;52.214;21.238;2022-12-20T04:48:06;100872.88;;;1.20;78.75
56582;BME280;42463;52.214;21.238;2022-12-20T04:50:34;100885.64;;;1.31;78.74
56582;BME280;42463;52.214;21.238;2022-12-20T04:52:58;100894.31;;;1.31;78.64
56582;BME280;42463;52.214;21.238;2022-12-20T04:55:41;100901.36;;;1.32;78.54
56582;BME280;42463;52.214;21.238;2022-12-20T04:58:06;100899.97;;;1.27;78.71
56582;BME280;42463;52.214;21.238;2022-12-20T05:00:32;100901.81;;;1.23;78.95
56582;BME280;42463;52.214;21.238;2022-12-20T05:03:03;100894.83;;;1.21;78.82
56582;BME280;42463;52.214;21.238;2022-12-20T05:05:28;100895.77;;;1.22;78.76
56582;BME280;42463;52.214;21.238;2022-12-20T05:07:53;100897.62;;;1.29;78.82
56582;BME280;42463;52.214;21.238;2022-12-20T05:10:20;100897.48;;;1.34;78.85
56582;BME280;42463;52.214;21.238;2022-12-20T05:16:13;100896.19;;;1.35;78.36
56582;BME280;42463;52.214;21.238;2022-12-20T05:18:40;100895.95;;;1.38;78.53
56582;BME280;42463;52.214;21.238;2022-12-20T05:21:05;100894.83;;;1.40;78.16
56582;BME280;42463;52.214;21.238;2022-12-20T05:23:49;100886.77;;;1.38;78.34
56582;BME280;42463;52.214;21.238;2022-12-20T05:26:54;100878.00;;;1.39;78.49
56582;BME280;42463;52.214;21.238;2022-12-20T05:29:19;100877.77;;;1.41;78.60
56582;BME280;42463;52.214;21.238;2022-12-20T05:31:44;100882.36;;;1.40;78.48
56582;BME280;42463;52.214;21.238;2022-12-20T05:34:12;100882.00;;;1.37;78.58
56582;BME280;42463;52.214;21.238;2022-12-20T05:36:38;100878.59;;;1.38;78.35
56582;BME280;42463;52.214;21.238;2022-12-20T05:39:02;100880.48;;;1.40;78.60
56582;BME280;42463;52.214;21.238;2022-12-20T05:41:30;100877.22;;;1.40;78.80
56582;BME280;42463;52.214;21.238;2022-12-20T05:44:09;100871.23;;;1.44;78.31
56582;BME280;42463;52.214;21.238;2022-12-20T05:46:45;100867.17;;;1.42;78.51
56582;BME280;42463;52.214;21.238;2022-12-20T05:49:16;100869.83;;;1.41;78.58
56582;BME280;42463;52.214;21.238;2022-12-20T05:51:45;100861.41;;;1.44;78.54
56582;BME280;42463;52.214;21.238;2022-12-20T05:54:21;100869.45;;;1.45;78.65
56582;BME280;42463;52.214;21.238;2022-12-20T05:57:13;100873.91;;;1.46;78.37
56582;BME280;42463;52.214;21.238;2022-12-20T05:59:39;100887.90;;;1.44;78.58
56582;BME280;42463;52.214;21.238;2022-12-20T06:02:13;100881.11;;;1.44;78.58
56582;BME280;42463;52.214;21.238;2022-12-20T06:04:38;100875.52;;;1.47;78.19
56582;BME280;42463;52.214;21.238;2022-12-20T06:07:12;100874.29;;;1.51;78.33
56582;BME280;42463;52.214;21.238;2022-12-20T06:09:38;100865.80;;;1.49;78.40
56582;BME280;42463;52.214;21.238;2022-12-20T06:12:07;100869.81;;;1.54;78.31
56582;BME280;42463;52.214;21.238;2022-12-20T06:14:32;100877.08;;;1.56;78.24
56582;BME280;42463;52.214;21.238;2022-12-20T06:17:01;100877.73;;;1.61;78.33
56582;BME280;42463;52.214;21.238;2022-12-20T06:19:28;100885.55;;;1.64;78.05
56582;BME280;42463;52.214;21.238;2022-12-20T06:21:54;100882.28;;;1.66;77.68
56582;BME280;42463;52.214;21.238;2022-12-20T06:24:27;100888.77;;;1.68;77.58
56582;BME280;42463;52.214;21.238;2022-12-20T06:26:52;100882.65;;;1.69;77.55
56582;BME280;42463;52.214;21.238;2022-12-20T06:29:23;100886.88;;;1.71;77.61
56582;BME280;42463;52.214;21.238;2022-12-20T06:31:57;100882.90;;;1.70;77.45
56582;BME280;42463;52.214;21.238;2022-12-20T06:34:24;100883.73;;;1.70;77.62
56582;BME280;42463;52.214;21.238;2022-12-20T06:36:59;100885.23;;;1.74;77.43
56582;BME280;42463;52.214;21.238;2022-12-20T06:39:28;100879.64;;;1.71;77.05
56582;BME280;42463;52.214;21.238;2022-12-20T06:42:08;100882.05;;;1.74;77.32
56582;BME280;42463;52.214;21.238;2022-12-20T06:44:36;100885.08;;;1.75;77.24
56582;BME280;42463;52.214;21.238;2022-12-20T06:47:02;100884.70;;;1.78;77.21
56582;BME280;42463;52.214;21.238;2022-12-20T06:49:29;100888.88;;;1.82;77.18
56582;BME280;42463;52.214;21.238;2022-12-20T06:51:56;100884.85;;;1.86;76.94
56582;BME280;42463;52.214;21.238;2022-12-20T06:58:00;100883.09;;;1.83;76.80
56582;BME280;42463;52.214;21.238;2022-12-20T07:00:28;100879.14;;;1.83;76.87
56582;BME280;42463;52.214;21.238;2022-12-20T07:03:02;100881.70;;;1.81;76.65
56582;BME280;42463;52.214;21.238;2022-12-20T07:05:35;100886.19;;;1.78;76.88
56582;BME280;42463;52.214;21.238;2022-12-20T07:08:00;100887.00;;;1.80;76.94
56582;BME280;42463;52.214;21.238;2022-12-20T07:10:28;100890.68;;;1.85;76.81
56582;BME280;42463;52.214;21.238;2022-12-20T07:12:54;100894.94;;;1.86;76.63
56582;BME280;42463;52.214;21.238;2022-12-20T07:15:19;100895.90;;;1.81;76.68
56582;BME280;42463;52.214;21.238;2022-12-20T07:17:46;100891.35;;;1.82;76.78
56582;BME280;42463;52.214;21.238;2022-12-20T07:20:14;100895.31;;;1.83;76.62
56582;BME280;42463;52.214;21.238;2022-12-20T07:25:55;100891.00;;;1.83;76.42
56582;BME280;42463;52.214;21.238;2022-12-20T07:28:20;100887.49;;;1.83;76.59
56582;BME280;42463;52.214;21.238;2022-12-20T07:30:46;100890.45;;;1.86;76.60
56582;BME280;42463;52.214;21.238;2022-12-20T07:33:19;100892.15;;;1.90;76.65
56582;BME280;42463;52.214;21.238;2022-12-20T07:35:45;100889.41;;;1.95;76.48
56582;BME280;42463;52.214;21.238;2022-12-20T07:38:10;100891.40;;;1.99;76.47
56582;BME280;42463;52.214;21.238;2022-12-20T07:40:35;100890.93;;;2.02;76.08
56582;BME280;42463;52.214;21.238;2022-12-20T07:43:23;100889.16;;;2.04;76.26
56582;BME280;42463;52.214;21.238;2022-12-20T07:46:14;100895.42;;;2.10;76.06
56582;BME280;42463;52.214;21.238;2022-12-20T07:48:44;100887.33;;;2.14;75.87
56582;BME280;42463;52.214;21.238;2022-12-20T07:51:14;100882.77;;;2.15;75.55
56582;BME280;42463;52.214;21.238;2022-12-20T07:53:46;100883.61;;;2.16;75.70
56582;BME280;42463;52.214;21.238;2022-12-20T07:56:13;100882.59;;;2.17;75.33
56582;BME280;42463;52.214;21.238;2022-12-20T07:58:47;100885.50;;;2.13;75.49
56582;BME280;42463;52.214;21.238;2022-12-20T08:01:27;100885.30;;;2.13;75.81
56582;BME280;42463;52.214;21.238;2022-12-20T08:03:55;100880.95;;;2.15;75.63
56582;BME280;42463;52.214;21.238;2022-12-20T08:06:27;100885.54;;;2.15;75.49
56582;BME280;42463;52.214;21.238;2022-12-20T08:08:57;100880.34;;;2.15;75.51
56582;BME280;42463;52.214;21.238;2022-12-20T08:11:24;100883.50;;;2.17;75.62
56582;BME280;42463;52.214;21.238;2022-12-20T08:13:53;100880.50;;;2.18;75.64
56582;BME280;42463;52.214;21.238;2022-12-20T08:16:24;100880.54;;;2.21;75.33
56582;BME280;42463;52.214;21.238;2022-12-20T08:18:49;100884.89;;;2.23;75.32
56582;BME280;42463;52.214;21.238;2022-12-20T08:21:16;100883.66;;;2.25;75.29
56582;BME280;42463;52.214;21.238;2022-12-20T08:23:41;100886.33;;;2.23;75.26
56582;BME280;42463;52.214;21.238;2022-12-20T08:26:06;100885.95;;;2.22;75.21
56582;BME280;42463;52.214;21.238;2022-12-20T08:28:31;100884.06;;;2.27;75.54
56582;BME280;42463;52.214;21.238;2022-12-20T08:31:02;100883.15;;;2.30;75.21
56582;BME280;42463;52.214;21.238;2022-12-20T08:33:27;100878.03;;;2.33;75.24
56582;BME280;42463;52.214;21.238;2022-12-20T08:35:58;100880.11;;;2.39;75.33
56582;BME280;42463;52.214;21.238;2022-12-20T08:38:26;100873.84;;;2.38;74.74
56582;BME280;42463;52.214;21.238;2022-12-20T08:40:53;100874.95;;;2.37;74.68
56582;BME280;42463;52.214;21.238;2022-12-20T08:43:18;100874.25;;;2.37;74.75
56582;BME280;42463;52.214;21.238;2022-12-20T08:45:50;100868.30;;;2.36;74.48
56582;BME280;42463;52.214;21.238;2022-12-20T08:48:14;100868.91;;;2.34;74.60
56582;BME280;42463;52.214;21.238;2022-12-20T08:50:40;100866.65;;;2.35;74.82
56582;BME280;42463;52.214;21.238;2022-12-20T08:53:05;100865.31;;;2.37;74.70
56582;BME280;42463;52.214;21.238;2022-12-20T08:55:30;100860.89;;;2.36;74.74
56582;BME280;42463;52.214;21.238;2022-12-20T08:57:55;100862.50;;;2.33;74.69
56582;BME280;42463;52.214;21.238;2022-12-20T09:00:22;100862.35;;;2.25;74.94
56582;BME280;42463;52.214;21.238;2022-12-20T09:02:48;100868.88;;;2.24;75.05
56582;BME280;42463;52.214;21.238;2022-12-20T09:05:20;100870.27;;;2.31;75.45
56582;BME280;42463;52.214;21.238;2022-12-20T09:07:47;100860.85;;;2.32;74.85
56582;BME280;42463;52.214;21.238;2022-12-20T09:10:14;100863.35;;;2.35;74.94
56582;BME280;42463;52.214;21.238;2022-12-20T09:12:39;100867.20;;;2.37;75.10
56582;BME280;42463;52.214;21.238;2022-12-20T09:15:06;100859.14;;;2.31;75.01
56582;BME280;42463;52.214;21.238;2022-12-20T09:17:31;100872.33;;;2.43;74.79
56582;BME280;42463;52.214;21.238;2022-12-20T09:19:57;100869.70;;;2.44;75.00
56582;BME280;42463;52.214;21.238;2022-12-20T09:22:22;100873.27;;;2.49;75.18
56582;BME280;42463;52.214;21.238;2022-12-20T09:24:50;100870.11;;;2.54;74.75
56582;BME280;42463;52.214;21.238;2022-12-20T09:27:15;100872.23;;;2.61;74.84
56582;BME280;42463;52.214;21.238;2022-12-20T09:29:40;100873.20;;;2.67;74.66
56582;BME280;42463;52.214;21.238;2022-12-20T09:32:06;100869.98;;;2.71;74.38
56582;BME280;42463;52.214;21.238;2022-12-20T09:34:31;100866.86;;;2.73;74.25
56582;BME280;42463;52.214;21.238;2022-12-20T09:36:57;100866.13;;;2.74;73.94
56582;BME280;42463;52.214;21.238;2022-12-20T09:39:23;100869.35;;;2.79;74.62
56582;BME280;42463;52.214;21.238;2022-12-20T09:41:50;100864.39;;;2.92;74.63
56582;BME280;42463;52.214;21.238;2022-12-20T09:44:21;100864.92;;;3.03;73.80
56582;BME280;42463;52.214;21.238;2022-12-20T09:46:50;100860.25;;;3.14;73.49
56582;BME280;42463;52.214;21.238;2022-12-20T09:49:21;100861.73;;;3.28;73.34
56582;BME280;42463;52.214;21.238;2022-12-20T09:52:11;100853.34;;;3.54;72.90
56582;BME280;42463;52.214;21.238;2022-12-20T09:54:48;100845.20;;;3.66;71.63
56582;BME280;42463;52.214;21.238;2022-12-20T09:57:24;100844.36;;;3.72;71.54
56582;BME280;42463;52.214;21.238;2022-12-20T09:59:56;100840.48;;;3.79;70.83
56582;BME280;42463;52.214;21.238;2022-12-20T10:02:23;100841.05;;;3.88;70.98
56582;BME280;42463;52.214;21.238;2022-12-20T10:04:49;100847.10;;;4.23;70.72
56582;BME280;42463;52.214;21.238;2022-12-20T10:07:24;100849.55;;;4.74;69.98
56582;BME280;42463;52.214;21.238;2022-12-20T10:10:18;100850.77;;;5.35;69.56
56582;BME280;42463;52.214;21.238;2022-12-20T10:12:55;100849.91;;;5.49;66.14
56582;BME280;42463;52.214;21.238;2022-12-20T10:15:27;100844.50;;;5.59;66.03
56582;BME280;42463;52.214;21.238;2022-12-20T10:18:13;100841.06;;;5.90;65.12
56582;BME280;42463;52.214;21.238;2022-12-20T10:20:54;100835.70;;;5.80;63.98
56582;BME280;42463;52.214;21.238;2022-12-20T10:23:24;100835.88;;;5.64;65.26
56582;BME280;42463;52.214;21.238;2022-12-20T10:25:52;100838.77;;;5.93;64.82
56582;BME280;42463;52.214;21.238;2022-12-20T10:28:22;100840.87;;;6.95;63.69
56582;BME280;42463;52.214;21.238;2022-12-20T10:30:49;100844.66;;;7.91;61.66
56582;BME280;42463;52.214;21.238;2022-12-20T10:33:25;100836.65;;;8.00;59.00
56582;BME280;42463;52.214;21.238;2022-12-20T10:35:51;100837.11;;;8.37;59.30
56582;BME280;42463;52.214;21.238;2022-12-20T10:38:17;100843.06;;;8.58;56.41
56582;BME280;42463;52.214;21.238;2022-12-20T10:40:46;100839.73;;;8.55;56.78
56582;BME280;42463;52.214;21.238;2022-12-20T10:43:16;100830.92;;;8.41;55.52
56582;BME280;42463;52.214;21.238;2022-12-20T10:45:43;100829.83;;;8.42;56.98
56582;BME280;42463;52.214;21.238;2022-12-20T10:48:28;100827.90;;;8.90;57.40
56582;BME280;42463;52.214;21.238;2022-12-20T10:50:59;100820.73;;;9.58;54.71
56582;BME280;42463;52.214;21.238;2022-12-20T10:53:27;100817.23;;;9.95;54.07
56582;BME280;42463;52.214;21.238;2022-12-20T10:56:18;100813.06;;;10.74;51.40
56582;BME280;42463;52.214;21.238;2022-12-20T10:58:59;100792.66;;;10.53;50.70
56582;BME280;42463;52.214;21.238;2022-12-20T11:01:30;100805.55;;;10.51;52.05
56582;BME280;42463;52.214;21.238;2022-12-20T11:04:01;100801.23;;;9.87;49.98
56582;BME280;42463;52.214;21.238;2022-12-20T11:06:38;100803.70;;;9.28;52.21
56582;BME280;42463;52.214;21.238;2022-12-20T11:09:28;100799.15;;;8.85;52.88
56582;BME280;42463;52.214;21.238;2022-12-20T11:12:03;100798.39;;;8.30;53.52
56582;BME280;42463;52.214;21.238;2022-12-20T11:14:32;100795.73;;;7.99;54.83
56582;BME280;42463;52.214;21.238;2022-12-20T11:17:00;100792.55;;;7.52;55.43
56582;BME280;42463;52.214;21.238;2022-12-20T11:19:43;100784.86;;;7.30;56.65
56582;BME280;42463;52.214;21.238;2022-12-20T11:22:20;100774.84;;;7.26;57.38
56582;BME280;42463;52.214;21.238;2022-12-20T11:24:54;100765.83;;;7.15;57.72
56582;BME280;42463;52.214;21.238;2022-12-20T11:27:31;100764.70;;;6.93;57.99
56582;BME280;42463;52.214;21.238;2022-12-20T11:30:11;100752.88;;;6.71;58.36
56582;BME280;42463;52.214;21.238;2022-12-20T11:33:05;100750.51;;;6.47;59.03
56582;BME280;42463;52.214;21.238;2022-12-20T11:35:45;100754.60;;;6.07;59.54
56582;BME280;42463;52.214;21.238;2022-12-20T11:38:31;100755.25;;;5.74;60.86
56582;BME280;42463;52.214;21.238;2022-12-20T11:41:12;100761.46;;;5.54;61.48
56582;BME280;42463;52.214;21.238;2022-12-20T11:43:57;100764.52;;;5.43;61.98
56582;BME280;42463;52.214;21.238;2022-12-20T11:46:37;100755.77;;;5.38;62.51
56582;BME280;42463;52.214;21.238;2022-12-20T11:49:20;100755.27;;;5.38;62.80
56582;BME280;42463;52.214;21.238;2022-12-20T11:51:51;100752.10;;;5.31;62.89
56582;BME280;42463;52.214;21.238;2022-12-20T11:54:28;100751.58;;;5.19;63.37
56582;BME280;42463;52.214;21.238;2022-12-20T11:57:00;100751.72;;;5.10;63.74
56582;BME280;42463;52.214;21.238;2022-12-20T11:59:34;100747.14;;;5.02;64.24
56582;BME280;42463;52.214;21.238;2022-12-20T12:02:07;100747.02;;;5.02;64.52
56582;BME280;42463;52.214;21.238;2022-12-20T12:04:40;100742.73;;;4.96;64.36
56582;BME280;42463;52.214;21.238;2022-12-20T12:07:11;100736.00;;;4.89;64.66
56582;BME280;42463;52.214;21.238;2022-12-20T12:09:49;100737.20;;;4.84;64.78
56582;BME280;42463;52.214;21.238;2022-12-20T12:12:31;100734.23;;;4.84;64.95
56582;BME280;42463;52.214;21.238;2022-12-20T12:15:25;100712.88;;;4.71;65.33
56582;BME280;42463;52.214;21.238;2022-12-20T12:17:58;100742.86;;;4.86;65.12
56582;BME280;42463;52.214;21.238;2022-12-20T12:20:30;100737.04;;;4.84;65.09
56582;BME280;42463;52.214;21.238;2022-12-20T12:23:04;100737.29;;;4.85;65.28
56582;BME280;42463;52.214;21.238;2022-12-20T12:25:32;100730.16;;;4.91;65.36
56582;BME280;42463;52.214;21.238;2022-12-20T12:28:01;100734.75;;;4.94;65.22
56582;BME280;42463;52.214;21.238;2022-12-20T12:30:36;100731.81;;;4.92;65.16
56582;BME280;42463;52.214;21.238;2022-12-20T12:33:13;100727.59;;;4.94;65.51
56582;BME280;42463;52.214;21.238;2022-12-20T12:35:49;100731.52;;;4.97;65.46
56582;BME280;42463;52.214;21.238;2022-12-20T12:38:54;100739.03;;;5.05;65.42
56582;BME280;42463;52.214;21.238;2022-12-20T12:41:57;100734.02;;;5.01;65.36
56582;BME280;42463;52.214;21.238;2022-12-20T12:44:40;100741.52;;;4.97;65.30
56582;BME280;42463;52.214;21.238;2022-12-20T12:47:14;100740.95;;;4.95;65.32
56582;BME280;42463;52.214;21.238;2022-12-20T12:49:42;100736.70;;;4.91;65.63
56582;BME280;42463;52.214;21.238;2022-12-20T12:52:35;100736.77;;;4.90;66.06
56582;BME280;42463;52.214;21.238;2022-12-20T12:55:40;100740.33;;;4.96;66.03
56582;BME280;42463;52.214;21.238;2022-12-20T12:58:37;100740.16;;;4.97;65.50
56582;BME280;42463;52.214;21.238;2022-12-20T13:01:08;100736.61;;;4.90;65.41
56582;BME280;42463;52.214;21.238;2022-12-20T13:03:44;100728.08;;;4.82;65.42
56582;BME280;42463;52.214;21.238;2022-12-20T13:09:41;100723.70;;;4.79;65.82
56582;BME280;42463;52.214;21.238;2022-12-20T13:15:50;100753.77;;;4.70;65.81
56582;BME280;42463;52.214;21.238;2022-12-20T13:18:27;100757.44;;;4.70;65.91
56582;BME280;42463;52.214;21.238;2022-12-20T13:21:23;100760.91;;;4.68;65.63
56582;BME280;42463;52.214;21.238;2022-12-20T13:27:48;100763.39;;;4.56;65.63
56582;BME280;42463;52.214;21.238;2022-12-20T13:30:27;100767.60;;;4.52;66.25